createdAt,value
2017-10-22T15:51:23.312Z,13.40
2017-10-22T15:56:26.118Z,13.30
2017-10-22T16:01:29.263Z,13.10
2017-10-22T16:06:32.012Z,13.00
2017-10-22T16:11:36.821Z,13.00
2017-10-22T16:16:39.499Z,12.90
2017-10-22T16:21:43.633Z,12.60
2017-10-22T16:26:47.225Z,12.60
2017-10-22T16:31:50.006Z,12.60
2017-10-22T16:36:52.775Z,12.60
2017-10-22T16:41:55.938Z,12.50
2017-10-22T16:46:58.739Z,12.50
2017-10-22T16:52:01.695Z,12.40
2017-10-22T16:57:04.383Z,12.30
2017-10-22T17:02:07.904Z,12.20
2017-10-22T17:07:18.175Z,12.00
2017-10-22T17:12:22.421Z,12.00
2017-10-22T17:17:25.833Z,11.90
2017-10-22T17:22:29.455Z,11.90
2017-10-22T17:27:38.298Z,11.80
2017-10-22T17:32:42.037Z,11.80
2017-10-22T17:37:44.683Z,11.90
2017-10-22T17:42:47.535Z,11.90
2017-10-22T17:47:50.192Z,11.80
2017-10-22T17:52:53.021Z,11.80
2017-10-22T17:57:56.609Z,11.90
2017-10-22T18:03:00.077Z,11.90
2017-10-22T18:08:02.916Z,11.90
2017-10-22T18:13:06.532Z,11.90
2017-10-22T18:18:09.204Z,11.90
2017-10-22T18:23:13.519Z,11.90
2017-10-22T18:28:16.343Z,11.80
2017-10-22T18:33:20.076Z,11.90
2017-10-22T18:38:23.076Z,11.80
2017-10-22T18:43:26.853Z,11.90
2017-10-22T18:48:29.612Z,11.80
2017-10-22T18:53:33.121Z,11.80
2017-10-22T18:58:36.094Z,11.80
2017-10-22T19:03:39.955Z,11.80
2017-10-22T19:08:43.406Z,11.80
2017-10-22T19:13:47.758Z,11.80
2017-10-22T19:18:51.280Z,11.80
2017-10-22T19:23:54.455Z,11.80
2017-10-22T19:28:57.098Z,11.70
2017-10-22T19:33:59.714Z,11.80
2017-10-22T19:39:03.261Z,11.70
2017-10-22T19:44:06.781Z,11.70
2017-10-22T19:49:10.400Z,11.70
2017-10-22T19:54:14.711Z,11.70
2017-10-22T19:59:17.348Z,11.70
2017-10-22T20:04:20.080Z,11.70
2017-10-22T20:09:22.956Z,11.70
2017-10-22T20:14:25.757Z,11.70
2017-10-22T20:19:28.412Z,11.60
2017-10-22T20:24:31.946Z,11.50
2017-10-22T20:29:34.568Z,11.50
2017-10-22T20:34:38.086Z,11.50
2017-10-22T20:39:40.889Z,11.50
2017-10-22T20:44:44.006Z,11.40
2017-10-22T20:49:47.033Z,11.40
2017-10-22T20:54:50.252Z,11.40
2017-10-22T20:59:52.873Z,11.30
2017-10-22T21:04:55.891Z,11.20
2017-10-22T21:09:58.549Z,11.20
2017-10-22T21:15:02.232Z,11.30
2017-10-22T21:20:05.641Z,11.20
2017-10-22T21:25:08.796Z,11.20
2017-10-22T21:30:11.721Z,11.10
2017-10-22T21:35:15.194Z,11.10
2017-10-22T21:40:18.593Z,10.90
2017-10-22T21:45:25.952Z,10.90
2017-10-22T21:50:28.874Z,11.00
2017-10-22T21:55:32.026Z,11.00
2017-10-22T22:00:34.628Z,11.00
2017-10-22T22:05:38.551Z,11.00
2017-10-22T22:10:41.120Z,11.00
2017-10-22T22:15:44.178Z,11.00
2017-10-22T22:20:47.544Z,10.90
2017-10-22T22:25:50.506Z,10.90
2017-10-22T22:30:53.135Z,10.80
2017-10-22T22:35:55.845Z,10.80
2017-10-22T22:40:58.449Z,10.70
2017-10-22T22:46:01.407Z,10.60
2017-10-22T22:51:04.032Z,10.50
2017-10-22T22:56:06.907Z,10.40
2017-10-22T23:01:10.279Z,10.60
2017-10-22T23:06:13.432Z,10.50
2017-10-22T23:11:16.779Z,10.50
2017-10-22T23:16:19.656Z,10.50
2017-10-22T23:21:22.261Z,10.40
2017-10-22T23:26:25.354Z,10.40
2017-10-22T23:31:28.725Z,10.30
2017-10-22T23:36:31.656Z,10.30
2017-10-22T23:41:34.262Z,10.30
2017-10-22T23:46:37.318Z,10.20
2017-10-22T23:51:39.920Z,10.30
2017-10-22T23:56:43.088Z,10.30
